Time;durP1;ratioP1;P1;durP2;ratioP2;P2;SDS_P1;SDS_P2;PMS_P1;PMS_P2;Temp;Humidity;BMP_temperature;BMP_pressure;BME280_temperature;BME280_humidity;BME280_pressure;Samples;Min_cycle;Max_cycle;Signal;HPM_P1;HPM_P2
2022/03/06 00:00:06;;;;;;;;;;;;;;;13.52;59.93;98552.81;2093015;28;19928;-60
2022/03/06 00:01:09;;;;;;;;;;;;;;;13.52;59.78;98552.81;2093396;28;19932;-57
2022/03/06 00:02:09;;;;;;;;;;;;;;;13.52;59.98;98550.16;2091120;28;19928;-52
2022/03/06 00:03:11;;;;;;;;;;;;;;;13.53;60.03;98550.97;2092442;28;19975;-55
2022/03/06 00:04:12;;;;;;;;;;;;;;;13.52;59.64;98549.34;2093713;28;19925;-53
2022/03/06 00:05:13;;;;;;;;;;;;;;;13.51;59.88;98551.16;2092637;28;19976;-60
2022/03/06 00:06:16;;;;;;;;;;;;;;;13.52;59.88;98549.34;2093255;28;19925;-53
2022/03/06 00:07:16;;;;;;;;;;;;;;;13.52;59.93;98554.66;2092864;28;19924;-62
2022/03/06 00:08:18;;;;;;;;;;;;;;;13.52;59.80;98552.00;2093616;28;20325;-51
2022/03/06 00:09:18;;;;;;;;;;;;;;;13.50;59.68;98548.66;2091326;28;20601;-57
2022/03/06 00:10:21;;;;;;;;;;;;;;;13.49;60.01;98549.69;2092712;28;20410;-53
2022/03/06 00:11:23;;;;;;;;;;;;;;;13.50;59.95;98549.50;2092539;28;19985;-57
2022/03/06 00:12:24;;;;;;;;;;;;;;;13.50;59.88;98551.31;2092384;28;19925;-53
2022/03/06 00:13:26;;;;;;;;;;;;;;;13.49;59.77;98555.84;2092393;28;19940;-51
2022/03/06 00:14:27;;;;;;;;;;;;;;;13.50;59.75;98554.00;2093078;28;19925;-55
2022/03/06 00:15:28;;;;;;;;;;;;;;;13.50;59.81;98552.16;2092805;28;20138;-57
2022/03/06 00:16:30;;;;;;;;;;;;;;;13.49;59.86;98553.16;2093535;28;19928;-54
2022/03/06 00:17:30;;;;;;;;;;;;;;;13.49;59.86;98552.34;2093009;28;19935;-52
2022/03/06 00:18:32;;;;;;;;;;;;;;;13.50;59.75;98551.31;2091300;28;20465;-52
2022/03/06 00:19:32;;;;;;;;;;;;;;;13.49;59.78;98557.66;2092105;28;20014;-59
2022/03/06 00:20:34;;;;;;;;;;;;;;;13.48;59.83;98559.47;2090477;28;19929;-54
2022/03/06 00:21:34;;;;;;;;;;;;;;;13.48;59.91;98562.16;2092367;28;19929;-54
2022/03/06 00:22:36;;;;;;;;;;;;;;;13.48;59.75;98559.47;2093350;28;19982;-52
2022/03/06 00:23:38;;;;;;;;;;;;;;;13.47;59.97;98552.50;2093043;28;19924;-56
2022/03/06 00:24:38;;;;;;;;;;;;;;;13.47;59.80;98557.84;2092835;28;19928;-57
2022/03/06 00:25:40;;;;;;;;;;;;;;;13.47;59.77;98554.34;2091745;28;19970;-62
2022/03/06 00:26:40;;;;;;;;;;;;;;;13.47;59.82;98552.50;2095046;28;19924;-50
2022/03/06 00:27:43;;;;;;;;;;;;;;;13.47;59.60;98559.66;2094497;28;20383;-60
2022/03/06 00:28:44;;;;;;;;;;;;;;;13.47;59.84;98557.00;2093890;28;20001;-54
2022/03/06 00:29:45;;;;;;;;;;;;;;;13.45;60.01;98554.50;2094168;28;19940;-53
2022/03/06 00:30:46;;;;;;;;;;;;;;;13.44;59.74;98563.50;2094414;28;19928;-56
2022/03/06 00:31:48;;;;;;;;;;;;;;;13.44;59.99;98558.19;2094533;28;19924;-56
2022/03/06 00:32:49;;;;;;;;;;;;;;;13.44;59.90;98552.84;2093474;28;20385;-56
2022/03/06 00:33:50;;;;;;;;;;;;;;;13.44;60.04;98555.50;2094576;28;19931;-55
2022/03/06 00:34:51;;;;;;;;;;;;;;;13.44;59.98;98560.84;2093670;28;19929;-53
2022/03/06 00:35:52;;;;;;;;;;;;;;;13.44;59.72;98552.84;2092735;28;19947;-58
2022/03/06 00:36:53;;;;;;;;;;;;;;;13.43;60.03;98551.19;2095199;28;19932;-54
2022/03/06 00:37:54;;;;;;;;;;;;;;;13.44;59.86;98546.69;2093731;28;19932;-57
2022/03/06 00:38:56;;;;;;;;;;;;;;;13.44;59.99;98552.84;2093976;28;19957;-62
2022/03/06 00:39:56;;;;;;;;;;;;;;;13.42;59.85;98557.50;2094640;28;19925;-51
2022/03/06 00:40:58;;;;;;;;;;;;;;;13.42;59.92;98554.84;2093794;28;20296;-53
2022/03/06 00:41:58;;;;;;;;;;;;;;;13.41;60.03;98554.03;2095305;28;20018;-58
2022/03/06 00:43:01;;;;;;;;;;;;;;;13.41;59.78;98550.53;2092609;28;19940;-54
2022/03/06 00:44:02;;;;;;;;;;;;;;;13.40;59.97;98551.53;2094529;28;20114;-53
2022/03/06 00:45:04;;;;;;;;;;;;;;;13.40;60.12;98548.88;2094524;28;20401;-52
2022/03/06 00:46:06;;;;;;;;;;;;;;;13.42;60.02;98544.19;2093806;28;19928;-52
2022/03/06 00:47:07;;;;;;;;;;;;;;;13.39;59.82;98545.38;2094730;28;19928;-52
2022/03/06 00:48:08;;;;;;;;;;;;;;;13.40;59.88;98551.53;2094072;28;19931;-58
2022/03/06 00:49:09;;;;;;;;;;;;;;;13.39;60.01;98548.03;2094568;28;19931;-51
2022/03/06 00:50:11;;;;;;;;;;;;;;;13.39;59.94;98542.69;2092373;28;19994;-55
2022/03/06 00:51:12;;;;;;;;;;;;;;;13.40;60.04;98546.22;2094321;28;20348;-52
2022/03/06 00:52:13;;;;;;;;;;;;;;;13.38;59.96;98541.03;2095070;28;19932;-55
2022/03/06 00:53:14;;;;;;;;;;;;;;;13.38;59.97;98542.88;2093290;28;20352;-56
2022/03/06 00:54:15;;;;;;;;;;;;;;;13.39;59.84;98547.19;2094790;28;19936;-57
2022/03/06 00:55:17;;;;;;;;;;;;;;;13.38;59.96;98543.72;2094125;28;19932;-55
2022/03/06 00:56:17;;;;;;;;;;;;;;;13.37;60.00;98546.53;2094257;28;19925;-53
2022/03/06 00:57:19;;;;;;;;;;;;;;;13.37;60.03;98547.38;2094931;28;19978;-52
2022/03/06 00:58:21;;;;;;;;;;;;;;;13.37;59.79;98547.38;2094840;28;20490;-56
2022/03/06 00:59:22;;;;;;;;;;;;;;;13.36;59.98;98539.56;2092351;28;19924;-53
2022/03/06 01:00:23;;;;;;;;;;;;;;;13.37;59.88;98544.72;2092617;28;19932;-60
2022/03/06 01:01:25;;;;;;;;;;;;;;;13.37;59.77;98541.22;2094491;28;19924;-56
2022/03/06 01:02:26;;;;;;;;;;;;;;;13.36;60.07;98543.03;2094265;28;19928;-56
2022/03/06 01:03:28;;;;;;;;;;;;;;;13.36;59.70;98548.38;2091372;28;19924;-54
2022/03/06 01:04:29;;;;;;;;;;;;;;;13.36;59.91;98547.53;2094746;28;20410;-59
2022/03/06 01:05:30;;;;;;;;;;;;;;;13.35;59.92;98544.06;2094241;28;19934;-52
2022/03/06 01:06:31;;;;;;;;;;;;;;;13.35;59.79;98548.56;2094521;28;19931;-54
2022/03/06 01:07:32;;;;;;;;;;;;;;;13.34;59.85;98545.03;2093962;28;19928;-59
2022/03/06 01:08:33;;;;;;;;;;;;;;;13.34;59.70;98546.88;2094185;28;20396;-59
2022/03/06 01:09:34;;;;;;;;;;;;;;;13.33;59.95;98546.06;2093948;28;19928;-52
2022/03/06 01:10:36;;;;;;;;;;;;;;;13.34;59.83;98547.69;2094094;28;20382;-53
2022/03/06 01:11:37;;;;;;;;;;;;;;;13.34;60.05;98546.88;2091579;28;19978;-57
2022/03/06 01:12:38;;;;;;;;;;;;;;;13.33;60.11;98546.06;2093736;28;19924;-61
2022/03/06 01:13:41;;;;;;;;;;;;;;;13.33;59.89;98542.56;2094531;28;20325;-55
2022/03/06 01:14:41;;;;;;;;;;;;;;;13.33;59.81;98547.91;2094682;28;20647;-52
2022/03/06 01:15:43;;;;;;;;;;;;;;;13.32;59.88;98552.41;2094091;28;19933;-56
2022/03/06 01:16:43;;;;;;;;;;;;;;;13.32;59.88;98544.41;2094296;28;20343;-52
2022/03/06 01:17:45;;;;;;;;;;;;;;;13.32;60.02;98549.72;2094532;28;19936;-52
2022/03/06 01:18:45;;;;;;;;;;;;;;;13.31;60.02;98549.88;2095005;28;20149;-53
2022/03/06 01:19:49;;;;;;;;;;;;;;;13.31;60.03;98553.38;2092828;28;19990;-58
2022/03/06 01:20:50;;;;;;;;;;;;;;;13.31;59.85;98552.56;2093985;28;19996;-61
2022/03/06 01:21:52;;;;;;;;;;;;;;;13.31;59.79;98545.38;2093851;28;19932;-58
2022/03/06 01:22:53;;;;;;;;;;;;;;;13.31;59.97;98541.91;2094808;28;19928;-55
2022/03/06 01:23:54;;;;;;;;;;;;;;;13.30;59.85;98543.75;2094893;28;19955;-50
2022/03/06 01:24:55;;;;;;;;;;;;;;;13.29;59.88;98539.44;2094724;28;19936;-55
2022/03/06 01:25:57;;;;;;;;;;;;;;;13.30;59.85;98545.56;2094115;28;19951;-58
2022/03/06 01:26:58;;;;;;;;;;;;;;;13.31;59.88;98544.56;2094553;28;19969;-52
2022/03/06 01:27:59;;;;;;;;;;;;;;;13.29;59.95;98547.41;2092741;28;20294;-60
2022/03/06 01:29:02;;;;;;;;;;;;;;;13.29;59.79;98541.22;2093566;28;19924;-53
2022/03/06 01:30:05;;;;;;;;;;;;;;;13.29;59.82;98543.91;2091096;28;20046;-56
2022/03/06 01:31:06;;;;;;;;;;;;;;;13.29;59.86;98541.22;2093890;28;19924;-57
2022/03/06 01:32:08;;;;;;;;;;;;;;;13.28;59.80;98542.25;2094233;28;20335;-57
2022/03/06 01:33:08;;;;;;;;;;;;;;;13.27;59.92;98535.25;2093455;28;19925;-60
2022/03/06 01:34:10;;;;;;;;;;;;;;;13.27;59.93;98532.59;2090960;28;19924;-55
2022/03/06 01:35:11;;;;;;;;;;;;;;;13.26;59.90;98536.25;2093656;28;20209;-57
2022/03/06 01:36:12;;;;;;;;;;;;;;;13.27;59.85;98535.25;2091822;28;19947;-55
2022/03/06 01:37:13;;;;;;;;;;;;;;;13.27;59.89;98524.63;2093309;28;19925;-55
2022/03/06 01:38:14;;;;;;;;;;;;;;;13.27;60.00;98530.75;2094344;28;19929;-58
2022/03/06 01:39:15;;;;;;;;;;;;;;;13.26;59.90;98529.13;2093714;28;19936;-55
2022/03/06 01:40:19;;;;;;;;;;;;;;;13.26;59.99;98528.25;2093437;28;20406;-59
2022/03/06 01:41:19;;;;;;;;;;;;;;;13.25;59.84;98523.91;2093428;28;20306;-58
2022/03/06 01:42:21;;;;;;;;;;;;;;;13.25;60.01;98523.91;2094222;28;19974;-54
2022/03/06 01:43:22;;;;;;;;;;;;;;;13.25;60.14;98523.91;2091895;28;19943;-56
2022/03/06 01:44:25;;;;;;;;;;;;;;;13.24;59.86;98525.75;2092710;28;20430;-56
2022/03/06 01:45:25;;;;;;;;;;;;;;;13.25;60.03;98523.91;2093630;28;19930;-58
2022/03/06 01:46:27;;;;;;;;;;;;;;;13.23;59.97;98521.41;2094693;28;19998;-54
2022/03/06 01:47:31;;;;;;;;;;;;;;;13.24;60.12;98524.94;2093455;28;19925;-56
2022/03/06 01:48:32;;;;;;;;;;;;;;;13.23;59.95;98523.25;2093669;28;19932;-58
2022/03/06 01:49:33;;;;;;;;;;;;;;;13.22;60.14;98522.41;2093658;28;19931;-53
2022/03/06 01:50:34;;;;;;;;;;;;;;;13.22;60.07;98524.25;2093863;28;19924;-58
2022/03/06 01:51:35;;;;;;;;;;;;;;;13.22;59.97;98525.09;2094659;28;20391;-55
2022/03/06 01:52:36;;;;;;;;;;;;;;;13.23;59.95;98528.56;2094456;28;19932;-57
2022/03/06 01:53:37;;;;;;;;;;;;;;;13.21;59.88;98519.94;2093628;28;19925;-57
2022/03/06 01:54:39;;;;;;;;;;;;;;;13.21;60.00;98525.28;2091614;28;19928;-55
2022/03/06 01:55:39;;;;;;;;;;;;;;;13.22;59.99;98522.41;2093270;28;20271;-54
2022/03/06 01:56:41;;;;;;;;;;;;;;;13.21;59.81;98517.28;2093811;28;19986;-57
2022/03/06 01:57:43;;;;;;;;;;;;;;;13.19;60.11;98518.25;2094016;28;19935;-59
2022/03/06 01:58:45;;;;;;;;;;;;;;;13.22;60.18;98518.94;2093618;28;20306;-55
2022/03/06 01:59:47;;;;;;;;;;;;;;;13.18;59.96;98516.63;2093511;28;20767;-56
2022/03/06 02:00:49;;;;;;;;;;;;;;;13.19;60.00;98517.44;2093439;28;19953;-53
2022/03/06 02:01:50;;;;;;;;;;;;;;;13.19;60.10;98523.59;2093019;28;19931;-57
2022/03/06 02:02:52;;;;;;;;;;;;;;;13.19;59.89;98515.59;2094407;28;19928;-55
2022/03/06 02:03:53;;;;;;;;;;;;;;;13.18;59.91;98521.13;2091865;28;19990;-53
2022/03/06 02:04:53;;;;;;;;;;;;;;;13.18;60.01;98519.28;2094394;28;19949;-55
2022/03/06 02:05:55;;;;;;;;;;;;;;;13.18;59.92;98518.47;2094335;28;19932;-58
2022/03/06 02:06:56;;;;;;;;;;;;;;;13.17;59.93;98514.94;2092086;28;19932;-55
2022/03/06 02:07:57;;;;;;;;;;;;;;;13.17;59.89;98511.44;2094365;28;19932;-56
2022/03/06 02:08:59;;;;;;;;;;;;;;;13.17;60.17;98512.28;2094504;28;19939;-57
2022/03/06 02:10:00;;;;;;;;;;;;;;;13.16;60.02;98507.13;2093596;28;20398;-53
2022/03/06 02:11:01;;;;;;;;;;;;;;;13.16;60.05;98509.78;2093508;28;19935;-54
2022/03/06 02:13:28;;;;;;;;;;;;;;;13.14;59.90;98509.94;2082981;28;20350;-55
2022/03/06 02:14:28;;;;;;;;;;;;;;;13.14;59.95;98509.94;2094105;28;19928;-57
2022/03/06 02:15:32;;;;;;;;;;;;;;;13.14;60.18;98507.28;2092087;28;19928;-57
2022/03/06 02:16:32;;;;;;;;;;;;;;;13.14;60.05;98507.28;2093419;28;19964;-54
2022/03/06 02:17:37;;;;;;;;;;;;;;;13.16;60.01;98512.47;2094385;28;19933;-56
2022/03/06 02:18:37;;;;;;;;;;;;;;;13.13;60.15;98505.66;2094089;28;19928;-49
2022/03/06 02:19:51;;;;;;;;;;;;;;;13.15;59.96;98506.31;2093254;28;20218;-60
2022/03/06 02:20:52;;;;;;;;;;;;;;;13.14;59.94;98503.81;2090905;28;20276;-52
2022/03/06 02:21:54;;;;;;;;;;;;;;;13.12;59.89;98504.00;2093641;28;19929;-54
2022/03/06 02:22:57;;;;;;;;;;;;;;;13.13;60.05;98508.31;2093764;28;19924;-57
2022/03/06 02:23:59;;;;;;;;;;;;;;;13.13;60.08;98507.47;2092156;28;19935;-52
2022/03/06 02:25:01;;;;;;;;;;;;;;;13.13;60.06;98510.97;2093762;28;20456;-56
2022/03/06 02:26:02;;;;;;;;;;;;;;;13.12;60.07;98505.81;2094239;28;19968;-55
2022/03/06 02:27:03;;;;;;;;;;;;;;;13.13;60.01;98510.97;2093917;28;19925;-56
2022/03/06 02:28:06;;;;;;;;;;;;;;;13.12;59.94;98517.31;2093498;28;19931;-55
2022/03/06 02:29:07;;;;;;;;;;;;;;;13.11;60.04;98510.31;2094293;28;19925;-58
2022/03/06 02:30:10;;;;;;;;;;;;;;;13.12;60.16;98511.97;2092740;28;19981;-57
2022/03/06 02:31:12;;;;;;;;;;;;;;;13.12;60.21;98513.78;2093581;28;20012;-53
2022/03/06 02:32:14;;;;;;;;;;;;;;;13.10;60.19;98513.16;2092061;28;20270;-53
2022/03/06 02:33:15;;;;;;;;;;;;;;;13.10;60.03;98513.16;2093954;28;19932;-54
2022/03/06 02:34:16;;;;;;;;;;;;;;;13.11;60.09;98520.13;2094013;28;19928;-53
2022/03/06 02:35:18;;;;;;;;;;;;;;;13.09;60.21;98517.66;2093301;28;19925;-52
2022/03/06 02:36:18;;;;;;;;;;;;;;;13.09;60.24;98512.31;2093969;28;19924;-57
2022/03/06 02:37:22;;;;;;;;;;;;;;;13.09;60.00;98522.97;2094312;28;19924;-55
2022/03/06 02:38:22;;;;;;;;;;;;;;;13.09;60.04;98515.00;2094269;28;19928;-52
2022/03/06 02:39:25;;;;;;;;;;;;;;;13.09;60.21;98522.13;2094477;28;20281;-56
2022/03/06 02:40:26;;;;;;;;;;;;;;;13.08;60.20;98520.47;2094548;28;19924;-58
2022/03/06 02:41:34;;;;;;;;;;;;;;;13.08;60.20;98517.81;2092035;28;20019;-58
2022/03/06 02:42:37;;;;;;;;;;;;;;;13.08;60.12;98528.47;2093921;28;20091;-57
2022/03/06 02:43:38;;;;;;;;;;;;;;;13.09;60.17;98519.47;2093204;28;19924;-57
2022/03/06 02:44:39;;;;;;;;;;;;;;;13.08;60.30;98533.78;2093931;28;20248;-54
2022/03/06 02:45:40;;;;;;;;;;;;;;;13.06;60.07;98528.63;2093783;28;20349;-59
2022/03/06 02:46:44;;;;;;;;;;;;;;;13.07;59.92;98524.16;2093330;28;20019;-56
2022/03/06 02:47:46;;;;;;;;;;;;;;;13.06;60.05;98523.28;2092187;28;19928;-56
2022/03/06 02:48:47;;;;;;;;;;;;;;;13.07;60.02;98526.81;2092513;28;19929;-55
2022/03/06 02:49:48;;;;;;;;;;;;;;;13.06;60.20;98523.28;2093940;28;19929;-57
2022/03/06 02:50:51;;;;;;;;;;;;;;;13.07;60.17;98530.28;2094309;28;19931;-55
2022/03/06 02:51:52;;;;;;;;;;;;;;;13.07;59.94;98522.31;2093209;28;20061;-54
2022/03/06 02:52:55;;;;;;;;;;;;;;;13.05;60.21;98510.16;2093839;28;20415;-56
2022/03/06 02:53:56;;;;;;;;;;;;;;;13.04;60.08;98514.66;2093185;28;19977;-57
2022/03/06 02:54:57;;;;;;;;;;;;;;;13.05;59.91;98515.50;2094087;28;19932;-58
2022/03/06 02:55:59;;;;;;;;;;;;;;;13.05;60.09;98510.16;2093382;28;20015;-52
2022/03/06 02:57:00;;;;;;;;;;;;;;;13.05;60.10;98518.16;2093134;28;19928;-57
2022/03/06 02:58:01;;;;;;;;;;;;;;;13.04;60.20;98514.66;2094237;28;19936;-51
2022/03/06 02:59:02;;;;;;;;;;;;;;;13.04;60.15;98517.31;2094253;28;20020;-59
2022/03/06 03:00:05;;;;;;;;;;;;;;;13.04;60.15;98514.66;2094182;28;19959;-62
2022/03/06 03:01:08;;;;;;;;;;;;;;;13.05;60.24;98521.63;2094264;28;19967;-56
2022/03/06 03:02:08;;;;;;;;;;;;;;;13.03;59.96;98507.66;2093040;28;20264;-53
2022/03/06 03:03:10;;;;;;;;;;;;;;;13.03;60.04;98520.97;2094234;28;20294;-56
2022/03/06 03:04:10;;;;;;;;;;;;;;;13.03;60.26;98518.31;2093707;28;19981;-56
2022/03/06 03:05:12;;;;;;;;;;;;;;;13.02;60.06;98524.66;2092811;28;19936;-53
2022/03/06 03:06:13;;;;;;;;;;;;;;;13.03;60.26;98517.47;2094149;28;19924;-54
2022/03/06 03:07:14;;;;;;;;;;;;;;;13.02;60.04;98519.31;2095369;28;19929;-53
2022/03/06 03:08:17;;;;;;;;;;;;;;;13.01;60.12;98523.00;2094144;28;19937;-53
2022/03/06 03:09:19;;;;;;;;;;;;;;;13.02;60.20;98521.97;2094278;28;20280;-60
2022/03/06 03:10:23;;;;;;;;;;;;;;;13.02;60.24;98513.16;2093436;28;19928;-53
2022/03/06 03:11:23;;;;;;;;;;;;;;;13.01;60.05;98515.00;2096254;28;20438;-59
2022/03/06 03:12:25;;;;;;;;;;;;;;;13.00;60.22;98513.31;2095953;28;19928;-60
2022/03/06 03:13:25;;;;;;;;;;;;;;;13.01;60.05;98514.16;2095570;28;20587;-54
2022/03/06 03:14:31;;;;;;;;;;;;;;;13.00;59.92;98516.00;2094634;28;19932;-58
2022/03/06 03:15:33;;;;;;;;;;;;;;;12.99;60.10;98511.69;2094403;28;19970;-60
2022/03/06 03:16:33;;;;;;;;;;;;;;;13.00;60.08;98529.31;2093130;28;20004;-53
2022/03/06 03:17:35;;;;;;;;;;;;;;;12.99;60.17;98525.00;2093157;28;19993;-53
2022/03/06 03:18:35;;;;;;;;;;;;;;;13.00;60.09;98518.66;2092935;28;19928;-56
2022/03/06 03:19:37;;;;;;;;;;;;;;;12.99;60.05;98519.66;2093213;28;19928;-55
2022/03/06 03:20:37;;;;;;;;;;;;;;;12.97;60.11;98514.50;2092339;28;19967;-53
2022/03/06 03:21:39;;;;;;;;;;;;;;;12.98;60.13;98515.31;2094254;28;20383;-54
2022/03/06 03:22:39;;;;;;;;;;;;;;;12.99;60.20;98526.81;2093544;28;20430;-55
2022/03/06 03:23:42;;;;;;;;;;;;;;;12.98;60.15;98523.31;2093525;28;19979;-57
2022/03/06 03:24:43;;;;;;;;;;;;;;;12.97;60.05;98524.31;2090628;28;20004;-51
2022/03/06 03:25:44;;;;;;;;;;;;;;;12.96;60.29;98517.34;2093440;28;20375;-59
2022/03/06 03:26:45;;;;;;;;;;;;;;;12.96;60.28;98520.84;2093653;28;20439;-53
2022/03/06 03:27:47;;;;;;;;;;;;;;;12.97;60.18;98521.66;2092627;28;19928;-56
2022/03/06 03:28:47;;;;;;;;;;;;;;;12.96;60.14;98517.34;2093792;28;20543;-58
2022/03/06 03:29:49;;;;;;;;;;;;;;;12.96;60.16;98514.69;2093581;28;19932;-57
2022/03/06 03:30:49;;;;;;;;;;;;;;;12.95;60.16;98521.84;2092380;28;19932;-58
2022/03/06 03:31:51;;;;;;;;;;;;;;;12.95;60.10;98513.84;2093233;28;19931;-57
2022/03/06 03:32:52;;;;;;;;;;;;;;;12.96;60.18;98523.50;2091960;28;20314;-52
2022/03/06 03:33:53;;;;;;;;;;;;;;;12.95;60.25;98513.84;2093198;28;19932;-53
2022/03/06 03:34:54;;;;;;;;;;;;;;;12.96;60.23;98522.66;2093178;28;19932;-57
2022/03/06 03:35:56;;;;;;;;;;;;;;;12.95;60.26;98521.00;2091326;28;19935;-55
2022/03/06 03:36:58;;;;;;;;;;;;;;;12.94;60.15;98519.34;2093206;28;19931;-57
2022/03/06 03:37:59;;;;;;;;;;;;;;;12.95;60.28;98521.00;2092950;28;21452;-57
2022/03/06 03:39:01;;;;;;;;;;;;;;;12.94;60.18;98522.00;2094336;28;19997;-54
2022/03/06 03:40:04;;;;;;;;;;;;;;;12.93;60.07;98523.00;2092759;28;19932;-53
2022/03/06 03:41:05;;;;;;;;;;;;;;;12.94;60.27;98522.81;2093273;28;19932;-55
2022/03/06 03:42:07;;;;;;;;;;;;;;;12.93;60.03;98534.47;2093193;28;19924;-56
2022/03/06 03:43:08;;;;;;;;;;;;;;;12.92;60.03;98524.81;2091083;28;20268;-53
2022/03/06 03:44:09;;;;;;;;;;;;;;;12.92;60.24;98532.81;2093455;28;20262;-54
2022/03/06 03:45:10;;;;;;;;;;;;;;;12.93;60.30;98528.34;2091323;28;19928;-53
2022/03/06 03:46:11;;;;;;;;;;;;;;;12.92;60.21;98526.66;2093112;28;20329;-60
2022/03/06 03:47:12;;;;;;;;;;;;;;;12.92;60.26;98524.00;2093820;28;20337;-53
2022/03/06 03:48:13;;;;;;;;;;;;;;;12.91;60.20;98522.34;2092750;28;19932;-56
2022/03/06 03:49:14;;;;;;;;;;;;;;;12.91;60.13;98525.00;2093325;28;19973;-56
2022/03/06 03:50:16;;;;;;;;;;;;;;;12.90;60.14;98528.69;2092634;28;19937;-54
2022/03/06 03:51:16;;;;;;;;;;;;;;;12.91;60.21;98541.81;2093044;28;19936;-59
2022/03/06 03:52:18;;;;;;;;;;;;;;;12.90;60.17;98528.69;2093141;28;19932;-58
2022/03/06 03:53:18;;;;;;;;;;;;;;;12.88;60.26;98526.16;2090542;28;19924;-52
2022/03/06 03:54:21;;;;;;;;;;;;;;;12.89;60.12;98532.31;2092818;28;20306;-53
2022/03/06 03:55:22;;;;;;;;;;;;;;;12.89;60.23;98535.81;2093837;28;19925;-58
2022/03/06 03:56:23;;;;;;;;;;;;;;;12.88;60.06;98533.34;2092609;28;19928;-58
2022/03/06 03:57:24;;;;;;;;;;;;;;;12.89;60.06;98532.31;2092983;28;19924;-55
2022/03/06 03:58:25;;;;;;;;;;;;;;;12.89;60.32;98540.31;2093587;28;19924;-59
2022/03/06 03:59:26;;;;;;;;;;;;;;;12.88;60.29;98538.66;2093751;28;19936;-55
2022/03/06 04:00:27;;;;;;;;;;;;;;;12.87;60.18;98540.50;2092970;28;19935;-54
2022/03/06 04:01:28;;;;;;;;;;;;;;;12.88;60.36;98538.66;2094705;28;19978;-56
2022/03/06 04:02:29;;;;;;;;;;;;;;;12.86;60.30;98541.47;2094006;28;19951;-55
2022/03/06 04:03:30;;;;;;;;;;;;;;;12.86;60.21;98540.66;2093702;28;20023;-53
2022/03/06 04:04:31;;;;;;;;;;;;;;;12.86;60.20;98537.97;2092646;28;19929;-56
2022/03/06 04:05:32;;;;;;;;;;;;;;;12.86;60.21;98545.97;2094957;28;22071;-57
2022/03/06 04:06:34;;;;;;;;;;;;;;;12.85;60.19;98547.81;2095485;28;20309;-56
2022/03/06 04:07:34;;;;;;;;;;;;;;;12.86;60.21;98548.63;2094873;28;20015;-59
2022/03/06 04:08:36;;;;;;;;;;;;;;;12.86;60.23;98545.97;2094792;28;19928;-55
2022/03/06 04:09:39;;;;;;;;;;;;;;;12.85;60.25;98552.31;2094715;28;19925;-56
2022/03/06 04:10:39;;;;;;;;;;;;;;;12.85;60.20;98541.66;2093357;28;19931;-55
2022/03/06 04:11:41;;;;;;;;;;;;;;;12.84;60.19;98542.63;2095436;28;19928;-58
2022/03/06 04:12:41;;;;;;;;;;;;;;;12.84;60.24;98542.63;2095443;28;19936;-57
2022/03/06 04:13:43;;;;;;;;;;;;;;;12.84;60.25;98545.28;2094304;28;20391;-56
2022/03/06 04:14:44;;;;;;;;;;;;;;;12.83;60.25;98548.97;2092506;28;20027;-55
2022/03/06 04:15:47;;;;;;;;;;;;;;;12.84;60.29;98547.97;2095348;28;20320;-58
2022/03/06 04:16:47;;;;;;;;;;;;;;;12.84;60.32;98555.94;2094871;28;19990;-54
2022/03/06 04:17:49;;;;;;;;;;;;;;;12.83;60.12;98547.13;2095139;28;20403;-57
2022/03/06 04:18:49;;;;;;;;;;;;;;;12.84;60.22;98550.63;2094365;28;19932;-57
2022/03/06 04:19:51;;;;;;;;;;;;;;;12.82;60.22;98550.81;2094955;28;19925;-56
2022/03/06 04:20:52;;;;;;;;;;;;;;;12.82;60.44;98555.31;2094356;28;19955;-55
2022/03/06 04:21:53;;;;;;;;;;;;;;;12.82;60.46;98556.13;2094710;28;19930;-58
2022/03/06 04:22:54;;;;;;;;;;;;;;;12.83;60.31;98554.28;2093213;28;19924;-55
2022/03/06 04:23:56;;;;;;;;;;;;;;;12.81;60.19;98553.63;2094852;28;19932;-54
2022/03/06 04:24:58;;;;;;;;;;;;;;;12.81;60.26;98554.44;2095078;28;19931;-56
2022/03/06 04:25:59;;;;;;;;;;;;;;;12.81;60.34;98546.47;2094960;28;20034;-56
2022/03/06 04:27:00;;;;;;;;;;;;;;;12.81;60.22;98553.63;2094735;28;19929;-58
2022/03/06 04:28:01;;;;;;;;;;;;;;;12.80;60.26;98555.47;2095105;28;19929;-57
2022/03/06 04:29:04;;;;;;;;;;;;;;;12.80;60.26;98557.28;2095232;28;19935;-58
2022/03/06 04:30:05;;;;;;;;;;;;;;;12.80;60.38;98560.78;2094050;28;19928;-57
2022/03/06 04:31:07;;;;;;;;;;;;;;;12.80;60.23;98559.97;2092703;28;20188;-55
2022/03/06 04:32:07;;;;;;;;;;;;;;;12.80;60.10;98563.44;2094171;28;19928;-59
2022/03/06 04:33:09;;;;;;;;;;;;;;;12.80;60.36;98554.63;2094984;28;19925;-55
2022/03/06 04:34:11;;;;;;;;;;;;;;;12.80;60.33;98560.78;2094157;28;20070;-56
2022/03/06 04:35:11;;;;;;;;;;;;;;;12.80;60.24;98557.28;2094814;28;20417;-55
2022/03/06 04:36:13;;;;;;;;;;;;;;;12.80;60.31;98551.97;2094920;28;19924;-56
2022/03/06 04:37:13;;;;;;;;;;;;;;;12.79;60.24;98552.94;2095319;28;19932;-57
2022/03/06 04:38:15;;;;;;;;;;;;;;;12.78;60.37;98557.44;2095120;28;20546;-55
2022/03/06 04:39:15;;;;;;;;;;;;;;;12.79;60.30;98558.28;2092977;28;20310;-58
2022/03/06 04:40:18;;;;;;;;;;;;;;;12.78;60.27;98551.31;2094281;28;19931;-57
2022/03/06 04:41:19;;;;;;;;;;;;;;;12.78;60.39;98551.31;2094876;28;20383;-55
2022/03/06 04:42:20;;;;;;;;;;;;;;;12.77;60.23;98557.63;2094891;28;19937;-53
2022/03/06 04:43:22;;;;;;;;;;;;;;;12.76;60.34;98556.81;2094921;28;19925;-61
2022/03/06 04:44:24;;;;;;;;;;;;;;;12.76;60.18;98559.47;2093409;28;19990;-58
2022/03/06 04:45:26;;;;;;;;;;;;;;;12.75;60.32;98557.78;2094501;28;19931;-52
2022/03/06 04:46:28;;;;;;;;;;;;;;;12.75;60.28;98561.28;2093008;28;20478;-54
2022/03/06 04:47:28;;;;;;;;;;;;;;;12.75;60.53;98558.59;2094514;28;20394;-51
2022/03/06 04:48:30;;;;;;;;;;;;;;;12.74;60.26;98562.28;2094656;28;19933;-52
2022/03/06 04:49:31;;;;;;;;;;;;;;;12.74;60.50;98564.94;2094529;28;19933;-52
2022/03/06 04:50:32;;;;;;;;;;;;;;;12.73;60.43;98563.28;2094263;28;20400;-59
2022/03/06 04:51:33;;;;;;;;;;;;;;;12.73;60.26;98557.13;2094987;28;19928;-53
2022/03/06 04:52:34;;;;;;;;;;;;;;;12.73;60.27;98563.28;2093649;28;19928;-59
2022/03/06 04:53:36;;;;;;;;;;;;;;;12.73;60.23;98563.28;2092245;28;19925;-59
2022/03/06 04:54:38;;;;;;;;;;;;;;;12.73;60.24;98560.63;2094417;28;20466;-56
2022/03/06 04:55:40;;;;;;;;;;;;;;;12.73;60.43;98560.63;2094927;28;20174;-59
2022/03/06 04:56:41;;;;;;;;;;;;;;;12.73;60.40;98560.63;2094191;28;19951;-49
2022/03/06 04:57:45;;;;;;;;;;;;;;;12.73;60.45;98565.09;2095040;28;19928;-58
2022/03/06 04:58:47;;;;;;;;;;;;;;;12.72;60.37;98564.28;2094134;28;19929;-61
2022/03/06 04:59:47;;;;;;;;;;;;;;;12.72;60.45;98558.94;2094429;28;19924;-53
2022/03/06 05:00:49;;;;;;;;;;;;;;;12.72;60.43;98563.44;2094268;28;19932;-53
2022/03/06 05:01:49;;;;;;;;;;;;;;;12.72;60.48;98563.44;2093516;28;19925;-53
2022/03/06 05:02:51;;;;;;;;;;;;;;;12.70;60.27;98555.66;2094726;28;20050;-51
2022/03/06 05:03:51;;;;;;;;;;;;;;;12.70;60.26;98560.97;2095208;28;19953;-56
2022/03/06 05:04:53;;;;;;;;;;;;;;;12.70;60.27;98550.31;2093836;28;19946;-60
2022/03/06 05:05:53;;;;;;;;;;;;;;;12.71;60.24;98561.78;2095158;28;19925;-53
2022/03/06 05:06:55;;;;;;;;;;;;;;;12.70;60.27;98560.13;2094943;28;20015;-52
2022/03/06 05:07:55;;;;;;;;;;;;;;;12.69;60.46;98564.59;2094594;28;19932;-59
2022/03/06 05:08:57;;;;;;;;;;;;;;;12.69;60.38;98566.44;2094712;28;20322;-56
2022/03/06 05:09:57;;;;;;;;;;;;;;;12.70;60.47;98560.13;2092269;28;19929;-57
2022/03/06 05:11:00;;;;;;;;;;;;;;;12.69;60.33;98564.59;2094459;28;20329;-50
2022/03/06 05:12:01;;;;;;;;;;;;;;;12.69;60.13;98564.59;2094183;28;20390;-57
2022/03/06 05:13:02;;;;;;;;;;;;;;;12.69;60.21;98567.28;2093578;28;19932;-55
2022/03/06 05:14:03;;;;;;;;;;;;;;;12.68;60.39;98570.94;2094401;28;19924;-56
2022/03/06 05:15:05;;;;;;;;;;;;;;;12.68;60.40;98570.13;2094388;28;19928;-54
2022/03/06 05:16:06;;;;;;;;;;;;;;;12.68;60.31;98570.94;2094964;28;19928;-55
2022/03/06 05:17:07;;;;;;;;;;;;;;;12.69;60.48;98571.75;2094423;28;19928;-58
2022/03/06 05:18:08;;;;;;;;;;;;;;;12.68;60.24;98570.94;2093416;28;19928;-58
2022/03/06 05:19:10;;;;;;;;;;;;;;;12.66;60.44;98572.94;2094785;28;20333;-57
2022/03/06 05:20:11;;;;;;;;;;;;;;;12.68;60.23;98572.78;2092002;28;19929;-59
2022/03/06 05:21:12;;;;;;;;;;;;;;;12.66;60.48;98578.25;2094709;28;19931;-54